createdAt,value
2019-03-12T00:00:01.003Z,37.40
2019-03-12T00:01:00.999Z,38.80
2019-03-12T00:02:01.128Z,40.60
2019-03-12T00:03:00.973Z,41.80
2019-03-12T00:04:00.960Z,39.30
2019-03-12T00:05:01.015Z,40.50
2019-03-12T00:06:01.021Z,36.20
2019-03-12T00:07:00.926Z,43.10
2019-03-12T00:08:00.916Z,44.00
2019-03-12T00:09:00.906Z,35.90
2019-03-12T00:10:00.894Z,34.30
2019-03-12T00:11:00.882Z,35.10
2019-03-12T00:12:00.873Z,38.00
2019-03-12T00:13:00.861Z,37.20
2019-03-12T00:14:00.850Z,37.50
2019-03-12T00:15:00.840Z,32.10
2019-03-12T00:16:00.838Z,33.10
2019-03-12T00:17:00.818Z,37.90
2019-03-12T00:18:00.810Z,34.30
2019-03-12T00:19:00.795Z,32.90
2019-03-12T00:20:00.790Z,31.00
2019-03-12T00:21:00.792Z,33.80
2019-03-12T00:22:00.766Z,33.80
2019-03-12T00:23:00.753Z,32.80
2019-03-12T00:24:00.741Z,31.70
2019-03-12T00:25:00.729Z,33.70
2019-03-12T00:26:00.719Z,31.20
2019-03-12T00:27:00.731Z,33.00
2019-03-12T00:28:00.698Z,34.00
2019-03-12T00:29:00.687Z,29.40
2019-03-12T00:30:00.679Z,32.80
2019-03-12T00:31:00.669Z,31.40
2019-03-12T00:32:00.657Z,29.90
2019-03-12T00:33:00.643Z,30.90
2019-03-12T00:34:00.625Z,34.30
2019-03-12T00:35:00.623Z,31.60
2019-03-12T00:36:00.669Z,34.80
2019-03-12T00:37:00.812Z,33.20
2019-03-12T00:38:00.598Z,32.50
2019-03-12T00:39:00.936Z,32.90
2019-03-12T00:40:00.603Z,38.50
2019-03-12T00:41:00.558Z,32.30
2019-03-12T00:42:00.544Z,32.70
2019-03-12T00:43:00.533Z,35.70
2019-03-12T00:44:00.522Z,32.50
2019-03-12T00:45:00.536Z,31.10
2019-03-12T00:46:00.503Z,34.10
2019-03-12T00:47:00.490Z,34.80
2019-03-12T00:48:00.479Z,34.70
2019-03-12T00:49:00.468Z,29.30
2019-03-12T00:50:00.459Z,34.70
2019-03-12T00:51:00.448Z,37.10
2019-03-12T00:52:00.435Z,35.50
2019-03-12T00:53:00.423Z,30.00
2019-03-12T00:54:00.414Z,35.70
2019-03-12T00:55:00.413Z,33.00
2019-03-12T00:56:00.392Z,35.00
2019-03-12T00:57:00.385Z,29.40
2019-03-12T00:58:00.370Z,33.70
2019-03-12T00:59:00.358Z,31.80
2019-03-12T01:00:00.441Z,33.50
2019-03-12T01:01:00.338Z,28.50
2019-03-12T01:02:00.326Z,30.00
2019-03-12T01:03:00.314Z,29.60
2019-03-12T01:04:00.304Z,32.10
2019-03-12T01:05:00.368Z,32.70
2019-03-12T01:06:00.284Z,32.70
2019-03-12T01:07:00.273Z,30.70
2019-03-12T01:08:00.262Z,34.30
2019-03-12T01:09:00.251Z,33.40
2019-03-12T01:10:00.384Z,29.20
2019-03-12T01:11:00.231Z,31.10
2019-03-12T01:12:00.217Z,34.00
2019-03-12T01:13:00.211Z,30.70
2019-03-12T01:14:00.262Z,32.80
2019-03-12T01:15:00.376Z,31.80
2019-03-12T01:16:00.173Z,32.40
2019-03-12T01:17:00.186Z,30.90
2019-03-12T01:18:00.154Z,30.50
2019-03-12T01:19:00.141Z,31.50
2019-03-12T01:20:00.378Z,32.60
2019-03-12T01:21:00.117Z,32.90
2019-03-12T01:22:00.110Z,34.00
2019-03-12T01:23:00.098Z,31.00
2019-03-12T01:24:00.085Z,33.00
2019-03-12T01:25:00.117Z,30.60
2019-03-12T01:26:00.064Z,30.00
2019-03-12T01:27:00.051Z,32.00
2019-03-12T01:28:00.044Z,32.30
2019-03-12T01:29:00.033Z,31.60
2019-03-12T01:30:00.019Z,32.30
2019-03-12T01:31:00.010Z,30.50
2019-03-12T01:32:00.000Z,32.70
2019-03-12T01:32:59.995Z,31.70
2019-03-12T01:33:59.979Z,30.60
2019-03-12T01:34:59.969Z,30.10
2019-03-12T01:35:59.955Z,29.40
2019-03-12T01:36:59.945Z,29.90
2019-03-12T01:37:59.934Z,29.50
2019-03-12T01:38:59.922Z,29.20
2019-03-12T01:39:59.912Z,33.40
2019-03-12T01:40:59.902Z,31.30
2019-03-12T01:41:59.889Z,34.10
2019-03-12T01:42:59.880Z,32.80
2019-03-12T01:43:59.866Z,30.90
2019-03-12T01:44:59.862Z,31.20
2019-03-12T01:45:59.848Z,32.40
2019-03-12T01:46:59.836Z,29.20
2019-03-12T01:47:59.823Z,30.40
2019-03-12T01:48:59.826Z,32.30
2019-03-12T01:49:59.806Z,31.90
2019-03-12T01:50:59.836Z,33.80
2019-03-12T01:51:59.783Z,32.40
2019-03-12T01:52:59.771Z,34.80
2019-03-12T01:53:59.762Z,30.70
2019-03-12T01:54:59.751Z,32.80
2019-03-12T01:55:59.740Z,32.10
2019-03-12T01:56:59.728Z,32.40
2019-03-12T01:57:59.719Z,31.60
2019-03-12T01:58:59.706Z,29.40
2019-03-12T01:59:59.696Z,33.10
2019-03-12T02:00:59.687Z,29.90
2019-03-12T02:01:59.677Z,30.50
2019-03-12T02:02:59.663Z,33.40
2019-03-12T02:03:59.653Z,30.90
2019-03-12T02:04:59.642Z,33.60
2019-03-12T02:05:59.632Z,35.00
2019-03-12T02:06:59.621Z,35.80
2019-03-12T02:07:59.610Z,34.70
2019-03-12T02:08:59.601Z,35.70
2019-03-12T02:09:59.819Z,33.00
2019-03-12T02:10:59.582Z,33.80
2019-03-12T02:11:59.567Z,35.10
2019-03-12T02:12:59.560Z,32.20
2019-03-12T02:13:59.546Z,36.10
2019-03-12T02:14:59.533Z,33.60
2019-03-12T02:15:59.528Z,31.40
2019-03-12T02:16:59.514Z,34.10
2019-03-12T02:17:59.504Z,33.80
2019-03-12T02:18:59.495Z,33.00
2019-03-12T02:19:59.484Z,33.90
2019-03-12T02:20:59.478Z,33.80
2019-03-12T02:21:59.464Z,35.10
2019-03-12T02:22:59.451Z,33.40
2019-03-12T02:23:59.440Z,30.70
2019-03-12T02:24:59.473Z,34.90
2019-03-12T02:25:59.423Z,33.10
2019-03-12T02:26:59.408Z,34.20
2019-03-12T02:27:59.398Z,36.50
2019-03-12T02:28:59.388Z,37.10
2019-03-12T02:29:59.379Z,35.80
2019-03-12T02:30:59.371Z,33.80
2019-03-12T02:31:59.367Z,35.20
2019-03-12T02:32:59.355Z,34.30
2019-03-12T02:33:59.340Z,37.20
2019-03-12T02:34:59.410Z,36.70
2019-03-12T02:35:59.324Z,38.40
2019-03-12T02:36:59.315Z,37.40
2019-03-12T02:37:59.299Z,34.10
2019-03-12T02:38:59.284Z,34.40
2019-03-12T02:39:59.280Z,34.20
2019-03-12T02:40:59.264Z,36.90
2019-03-12T02:41:59.259Z,34.50
2019-03-12T02:42:59.260Z,37.30
2019-03-12T02:43:59.232Z,36.10
2019-03-12T02:44:59.224Z,33.00
2019-03-12T02:45:59.236Z,36.30
2019-03-12T02:46:59.200Z,37.40
2019-03-12T02:47:59.191Z,39.70
2019-03-12T02:48:59.180Z,34.80
2019-03-12T02:49:59.170Z,35.30
2019-03-12T02:50:59.158Z,38.90
2019-03-12T02:51:59.153Z,36.70
2019-03-12T02:52:59.139Z,36.10
2019-03-12T02:53:59.127Z,38.10
2019-03-12T02:54:59.117Z,37.00
2019-03-12T02:56:01.810Z,37.30
2019-03-12T02:56:59.097Z,41.10
2019-03-12T02:57:59.086Z,38.30
2019-03-12T02:58:59.076Z,39.90
2019-03-12T02:59:59.064Z,41.90
2019-03-12T03:00:59.055Z,39.00
2019-03-12T03:01:59.047Z,38.10
2019-03-12T03:02:59.032Z,36.80
2019-03-12T03:03:59.021Z,38.30
2019-03-12T03:04:59.012Z,39.40
2019-03-12T03:05:59.009Z,37.40
2019-03-12T03:06:59.034Z,37.90
2019-03-12T03:07:58.981Z,40.40
2019-03-12T03:08:58.971Z,39.30
2019-03-12T03:09:58.961Z,39.30
2019-03-12T03:10:58.980Z,38.30
2019-03-12T03:11:58.955Z,35.40
2019-03-12T03:12:58.930Z,37.30
2019-03-12T03:13:58.925Z,37.80
2019-03-12T03:14:58.919Z,39.60
2019-03-12T03:15:58.898Z,37.50
2019-03-12T03:16:58.924Z,38.50
2019-03-12T03:17:58.897Z,38.00
2019-03-12T03:18:58.990Z,37.30
2019-03-12T03:19:58.988Z,36.70
2019-03-12T03:20:58.848Z,37.70
2019-03-12T03:21:58.838Z,37.10
2019-03-12T03:22:58.830Z,37.10
2019-03-12T03:23:58.825Z,38.90
2019-03-12T03:24:58.805Z,40.20
2019-03-12T03:25:58.982Z,41.10
2019-03-12T03:26:58.786Z,39.40
2019-03-12T03:27:58.775Z,43.90
2019-03-12T03:28:58.772Z,43.40
2019-03-12T03:29:58.754Z,41.20
2019-03-12T03:30:58.748Z,38.80
2019-03-12T03:31:58.735Z,38.50
2019-03-12T03:32:58.744Z,39.20
2019-03-12T03:33:58.717Z,38.70
2019-03-12T03:34:58.704Z,37.70
2019-03-12T03:35:58.703Z,34.40
2019-03-12T03:36:58.683Z,34.40
2019-03-12T03:37:58.672Z,35.80
2019-03-12T03:38:58.664Z,36.00
2019-03-12T03:39:58.775Z,36.90
2019-03-12T03:40:58.644Z,36.40
2019-03-12T03:41:58.636Z,37.90
2019-03-12T03:42:58.625Z,37.90
2019-03-12T03:43:58.613Z,40.80
2019-03-12T03:44:58.601Z,35.90
2019-03-12T03:45:58.597Z,38.30
2019-03-12T03:46:58.590Z,41.30
2019-03-12T03:47:58.574Z,38.80
2019-03-12T03:48:58.562Z,37.60
2019-03-12T03:49:58.552Z,33.50
2019-03-12T03:50:58.542Z,32.90
2019-03-12T03:51:58.537Z,35.40
2019-03-12T03:52:58.525Z,34.40
2019-03-12T03:53:58.616Z,35.70
2019-03-12T03:54:58.510Z,35.50
2019-03-12T03:55:58.492Z,34.40
2019-03-12T03:56:58.480Z,33.10
2019-03-12T03:57:58.472Z,33.60
2019-03-12T03:58:58.489Z,32.60
2019-03-12T03:59:58.451Z,28.50
2019-03-12T04:00:58.443Z,27.30
2019-03-12T04:01:58.434Z,29.20
2019-03-12T04:02:58.419Z,29.90
2019-03-12T04:03:58.412Z,34.00
2019-03-12T04:04:58.402Z,32.70
2019-03-12T04:05:58.402Z,32.40
2019-03-12T04:06:58.385Z,32.40
2019-03-12T04:07:58.371Z,32.70
2019-03-12T04:08:58.361Z,31.10
2019-03-12T04:09:58.352Z,28.40
2019-03-12T04:10:58.342Z,25.00
2019-03-12T04:11:58.333Z,25.40
2019-03-12T04:12:58.326Z,23.50
2019-03-12T04:13:58.312Z,24.10
2019-03-12T04:14:58.300Z,22.50
2019-03-12T04:15:58.291Z,24.00
2019-03-12T04:16:58.285Z,23.00
2019-03-12T04:17:58.274Z,22.20
2019-03-12T04:18:58.267Z,25.10
2019-03-12T04:19:58.251Z,24.60
2019-03-12T04:20:58.251Z,24.60
2019-03-12T04:21:58.235Z,25.20
2019-03-12T04:22:58.227Z,23.40
2019-03-12T04:23:58.214Z,23.40
2019-03-12T04:24:58.200Z,24.00
2019-03-12T04:25:58.194Z,22.90
2019-03-12T04:26:58.181Z,23.90
2019-03-12T04:27:58.271Z,25.20
2019-03-12T04:28:58.162Z,22.20
2019-03-12T04:29:58.151Z,26.50
2019-03-12T04:30:58.142Z,23.30
2019-03-12T04:31:58.130Z,24.50
2019-03-12T04:32:58.120Z,22.70
2019-03-12T04:33:58.109Z,24.00
2019-03-12T04:34:58.099Z,24.90
2019-03-12T04:35:58.096Z,24.20
2019-03-12T04:36:58.136Z,24.60
2019-03-12T04:37:58.069Z,22.50
2019-03-12T04:38:58.059Z,23.90
2019-03-12T04:39:58.049Z,23.20
2019-03-12T04:40:58.039Z,24.40
2019-03-12T04:41:58.031Z,21.50
2019-03-12T04:42:58.019Z,24.30
2019-03-12T04:43:58.023Z,24.60
2019-03-12T04:44:58.006Z,23.60
2019-03-12T04:45:57.992Z,24.20
2019-03-12T04:46:57.979Z,26.10
2019-03-12T04:47:57.971Z,24.40
2019-03-12T04:48:57.960Z,23.90
2019-03-12T04:49:57.950Z,23.80
2019-03-12T04:50:57.939Z,24.10
2019-03-12T04:51:57.928Z,25.40
2019-03-12T04:52:57.920Z,26.80
2019-03-12T04:53:57.913Z,24.60
2019-03-12T04:54:57.901Z,26.70
2019-03-12T04:55:57.889Z,25.60
2019-03-12T04:56:57.880Z,23.10
2019-03-12T04:57:57.870Z,26.80
2019-03-12T04:58:57.859Z,25.00
2019-03-12T04:59:57.847Z,24.00
2019-03-12T05:00:57.839Z,24.50
2019-03-12T05:01:57.832Z,23.50
2019-03-12T05:02:57.819Z,24.40
2019-03-12T05:03:57.816Z,26.40
2019-03-12T05:04:57.799Z,22.60
2019-03-12T05:05:57.790Z,22.30
2019-03-12T05:06:57.783Z,21.40
2019-03-12T05:07:57.768Z,22.40
2019-03-12T05:08:57.761Z,22.80
2019-03-12T05:09:57.804Z,21.70
2019-03-12T05:10:57.742Z,25.20
2019-03-12T05:11:57.729Z,22.40
2019-03-12T05:12:57.717Z,22.30
2019-03-12T05:13:57.737Z,23.60
2019-03-12T05:14:57.758Z,24.60
2019-03-12T05:15:57.688Z,24.00
2019-03-12T05:16:57.679Z,24.00
2019-03-12T05:17:57.671Z,23.00
2019-03-12T05:18:57.657Z,23.30
2019-03-12T05:19:57.648Z,22.50
2019-03-12T05:20:57.638Z,20.50
2019-03-12T05:21:57.627Z,18.90
2019-03-12T05:22:57.618Z,19.00
2019-03-12T05:23:57.607Z,21.20
2019-03-12T05:24:57.599Z,16.50
2019-03-12T05:25:57.610Z,17.60
2019-03-12T05:26:57.581Z,19.00
2019-03-12T05:27:57.567Z,17.20
2019-03-12T05:28:57.562Z,16.90
2019-03-12T05:29:57.547Z,15.20
2019-03-12T05:30:57.539Z,17.80
2019-03-12T05:31:57.531Z,17.20
2019-03-12T05:32:57.524Z,15.90
2019-03-12T05:33:57.508Z,14.90
2019-03-12T05:34:57.497Z,16.80
2019-03-12T05:35:57.487Z,16.60
2019-03-12T05:36:57.481Z,15.70
2019-03-12T05:37:57.544Z,14.60
2019-03-12T05:38:57.461Z,16.60
2019-03-12T05:39:57.451Z,16.10
2019-03-12T05:40:57.436Z,13.80
2019-03-12T05:41:57.426Z,14.70
2019-03-12T05:42:57.416Z,15.80
2019-03-12T05:43:57.406Z,14.20
2019-03-12T05:44:57.397Z,14.50
2019-03-12T05:45:57.387Z,14.90
2019-03-12T05:46:57.400Z,16.60
2019-03-12T05:47:57.370Z,14.60
2019-03-12T05:48:57.356Z,14.60
2019-03-12T05:49:57.345Z,14.00
2019-03-12T05:50:57.338Z,16.00
2019-03-12T05:51:57.324Z,14.40
2019-03-12T05:52:57.317Z,13.20
2019-03-12T05:53:57.306Z,16.20
2019-03-12T05:54:57.297Z,15.90
2019-03-12T05:55:57.286Z,16.00
2019-03-12T05:56:57.276Z,13.70
2019-03-12T05:57:57.265Z,13.80
2019-03-12T05:58:57.252Z,14.80
2019-03-12T05:59:57.244Z,15.40
2019-03-12T06:00:57.237Z,14.50
2019-03-12T06:01:57.225Z,14.50
2019-03-12T06:02:57.214Z,14.90
2019-03-12T06:03:57.205Z,13.40
2019-03-12T06:04:57.194Z,13.60
2019-03-12T06:05:57.182Z,13.80
2019-03-12T06:06:57.175Z,14.20
2019-03-12T06:07:57.162Z,13.00
2019-03-12T06:08:57.153Z,13.60
2019-03-12T06:09:57.157Z,17.40
2019-03-12T06:10:57.147Z,13.20
2019-03-12T06:11:57.121Z,14.70
2019-03-12T06:12:57.115Z,13.40
2019-03-12T06:13:57.103Z,12.10
2019-03-12T06:14:57.092Z,14.00
2019-03-12T06:15:57.084Z,13.50
2019-03-12T06:16:57.073Z,12.00
2019-03-12T06:17:57.054Z,10.50
2019-03-12T06:18:57.053Z,12.80
2019-03-12T06:19:57.044Z,12.20
2019-03-12T06:20:57.033Z,11.70
2019-03-12T06:21:57.022Z,10.80
2019-03-12T06:22:57.011Z,11.90
2019-03-12T06:23:57.003Z,11.90
2019-03-12T06:24:56.993Z,11.60
2019-03-12T06:25:56.983Z,11.80
2019-03-12T06:26:56.973Z,10.50
2019-03-12T06:27:56.960Z,11.20
2019-03-12T06:28:56.951Z,11.80
2019-03-12T06:29:56.943Z,11.10
2019-03-12T06:30:56.930Z,10.30
2019-03-12T06:31:56.921Z,10.80
2019-03-12T06:32:56.911Z,12.40
2019-03-12T06:33:56.904Z,11.20
2019-03-12T06:34:56.893Z,12.10
2019-03-12T06:35:56.880Z,10.80
2019-03-12T06:36:56.871Z,11.50
2019-03-12T06:37:56.863Z,12.40
2019-03-12T06:38:56.850Z,11.40
2019-03-12T06:39:56.841Z,11.40
2019-03-12T06:40:56.832Z,9.30
2019-03-12T06:41:56.821Z,11.30
2019-03-12T06:42:56.810Z,12.40
2019-03-12T06:43:56.803Z,12.80
2019-03-12T06:44:56.792Z,12.30
2019-03-12T06:45:56.782Z,10.60
2019-03-12T06:46:56.771Z,11.90
2019-03-12T06:47:56.764Z,11.00
2019-03-12T06:48:56.752Z,12.30
2019-03-12T06:49:56.741Z,12.90
2019-03-12T06:50:56.736Z,12.10
2019-03-12T06:51:56.724Z,11.90
2019-03-12T06:52:56.720Z,12.20
2019-03-12T06:53:56.704Z,14.80
2019-03-12T06:54:56.694Z,12.40
2019-03-12T06:55:56.689Z,12.60
2019-03-12T06:56:56.675Z,12.80
2019-03-12T06:57:56.672Z,12.60
2019-03-12T06:58:56.654Z,13.00
2019-03-12T06:59:56.645Z,12.10
2019-03-12T07:00:56.638Z,12.70
2019-03-12T07:01:56.631Z,12.20
2019-03-12T07:02:57.126Z,14.60
2019-03-12T07:03:56.607Z,15.70
2019-03-12T07:04:56.684Z,12.30
2019-03-12T07:05:56.594Z,14.90
2019-03-12T07:06:56.581Z,14.40
2019-03-12T07:07:56.571Z,13.70
2019-03-12T07:08:56.566Z,14.00
2019-03-12T07:09:56.550Z,16.40
2019-03-12T07:10:56.541Z,13.70
2019-03-12T07:11:56.533Z,12.20
2019-03-12T07:12:56.524Z,15.30
2019-03-12T07:13:56.513Z,14.60
2019-03-12T07:14:56.506Z,14.30
2019-03-12T07:15:56.494Z,14.70
2019-03-12T07:16:56.488Z,14.10
2019-03-12T07:17:56.476Z,14.80
2019-03-12T07:18:56.465Z,14.60
2019-03-12T07:19:56.461Z,16.50
2019-03-12T07:20:56.447Z,17.40
2019-03-12T07:21:56.438Z,15.40
2019-03-12T07:22:56.426Z,16.60
2019-03-12T07:23:56.419Z,17.00
2019-03-12T07:24:56.409Z,14.90
2019-03-12T07:25:56.400Z,16.50
2019-03-12T07:26:56.396Z,16.70
2019-03-12T07:27:56.378Z,18.70
2019-03-12T07:28:56.375Z,17.70
2019-03-12T07:29:56.366Z,18.20
2019-03-12T07:30:56.440Z,18.00
2019-03-12T07:31:56.348Z,18.50
2019-03-12T07:32:56.575Z,17.90
2019-03-12T07:33:56.327Z,18.30
2019-03-12T07:34:56.317Z,17.40
2019-03-12T07:35:56.307Z,17.60
2019-03-12T07:36:56.357Z,17.20
2019-03-12T07:37:56.290Z,17.90
2019-03-12T07:38:56.321Z,16.90
2019-03-12T07:39:56.274Z,20.20
2019-03-12T07:40:56.267Z,20.00
2019-03-12T07:41:56.256Z,17.80
2019-03-12T07:42:56.278Z,19.50
2019-03-12T07:43:56.234Z,17.80
2019-03-12T07:44:56.224Z,19.00
2019-03-12T07:45:56.222Z,17.00
2019-03-12T07:46:56.232Z,18.10
2019-03-12T07:47:56.199Z,19.80
2019-03-12T07:48:56.187Z,20.60
2019-03-12T07:49:56.287Z,18.40
2019-03-12T07:50:56.169Z,17.70
2019-03-12T07:51:56.162Z,18.30
2019-03-12T07:52:56.154Z,19.00
2019-03-12T07:53:59.719Z,20.60
2019-03-12T07:54:56.132Z,21.70
2019-03-12T07:55:56.123Z,21.00
2019-03-12T07:56:56.141Z,21.10
2019-03-12T07:57:56.116Z,19.50
2019-03-12T07:58:56.097Z,20.20
2019-03-12T07:59:56.100Z,18.60
2019-03-12T08:00:56.084Z,20.60
2019-03-12T08:01:56.076Z,17.60
2019-03-12T08:02:56.083Z,17.20
2019-03-12T08:03:58.922Z,18.90
2019-03-12T08:04:56.051Z,18.00
2019-03-12T08:05:56.032Z,17.20
2019-03-12T08:06:56.025Z,16.90
2019-03-12T08:07:56.015Z,17.60
2019-03-12T08:08:56.010Z,17.90
2019-03-12T08:09:55.999Z,19.40
2019-03-12T08:10:55.990Z,21.20
2019-03-12T08:11:55.981Z,21.50
2019-03-12T08:12:55.973Z,18.10
2019-03-12T08:13:55.964Z,19.00
2019-03-12T08:14:55.952Z,19.70
2019-03-12T08:15:55.951Z,15.90
2019-03-12T08:16:55.950Z,16.90
2019-03-12T08:17:55.930Z,16.80
2019-03-12T08:18:55.920Z,16.60
2019-03-12T08:19:55.916Z,16.90
2019-03-12T08:20:55.903Z,16.50
2019-03-12T08:21:55.897Z,18.20
2019-03-12T08:22:55.887Z,19.80
2019-03-12T08:23:56.049Z,18.30
2019-03-12T08:24:55.871Z,19.90
2019-03-12T08:25:55.863Z,19.70
2019-03-12T08:26:55.857Z,18.00
2019-03-12T08:27:55.847Z,20.50
2019-03-12T08:28:55.837Z,20.10
2019-03-12T08:29:55.827Z,20.80
2019-03-12T08:30:55.816Z,19.50
2019-03-12T08:31:55.807Z,18.20
2019-03-12T08:32:55.802Z,19.60
2019-03-12T08:33:55.792Z,20.30
2019-03-12T08:34:55.784Z,18.50
2019-03-12T08:35:55.776Z,19.60
2019-03-12T08:36:55.768Z,21.10
2019-03-12T08:37:55.764Z,19.30
2019-03-12T08:38:55.751Z,20.60
2019-03-12T08:39:55.743Z,19.90
2019-03-12T08:40:55.737Z,19.20
2019-03-12T08:41:55.729Z,18.80
2019-03-12T08:42:55.716Z,19.30
2019-03-12T08:43:55.710Z,19.00
2019-03-12T08:44:58.840Z,17.00
2019-03-12T08:45:55.703Z,19.40
2019-03-12T08:46:55.687Z,16.00
2019-03-12T08:47:55.687Z,18.60
2019-03-12T08:48:55.669Z,17.00
2019-03-12T08:49:55.666Z,16.70
2019-03-12T08:50:55.651Z,15.70
2019-03-12T08:51:55.646Z,16.70
2019-03-12T08:52:55.636Z,15.30
2019-03-12T08:53:55.629Z,16.10
2019-03-12T08:54:55.624Z,15.20
2019-03-12T08:55:55.610Z,15.30
2019-03-12T08:56:55.603Z,15.60
2019-03-12T08:57:55.593Z,18.90
2019-03-12T08:58:55.590Z,16.20
2019-03-12T08:59:55.582Z,15.50
2019-03-12T09:00:55.573Z,16.30
2019-03-12T09:01:55.564Z,15.30
2019-03-12T09:02:55.555Z,14.30
2019-03-12T09:03:55.549Z,16.40
2019-03-12T09:04:55.541Z,14.30
2019-03-12T09:05:55.534Z,12.20
2019-03-12T09:06:55.524Z,13.00
2019-03-12T09:07:55.518Z,11.60
2019-03-12T09:08:55.510Z,12.70
2019-03-12T09:09:55.531Z,13.60
2019-03-12T09:10:55.494Z,11.50
2019-03-12T09:11:55.484Z,12.20
2019-03-12T09:12:55.477Z,13.00
2019-03-12T09:13:55.470Z,13.70
2019-03-12T09:14:55.462Z,11.70
2019-03-12T09:15:55.460Z,13.40
2019-03-12T09:16:55.446Z,11.20
2019-03-12T09:17:55.440Z,12.30
2019-03-12T09:18:55.431Z,13.70
2019-03-12T09:19:55.422Z,13.10
2019-03-12T09:20:55.417Z,12.70
2019-03-12T09:21:55.409Z,11.90
2019-03-12T09:22:55.399Z,12.40
2019-03-12T09:23:55.392Z,11.20
2019-03-12T09:24:55.386Z,11.70
2019-03-12T09:25:55.377Z,11.60
2019-03-12T09:26:55.371Z,10.70
2019-03-12T09:27:55.361Z,11.60
2019-03-12T09:28:55.354Z,9.70
2019-03-12T09:29:55.348Z,10.90
2019-03-12T09:30:55.338Z,9.70
2019-03-12T09:31:55.335Z,10.00
2019-03-12T09:32:55.323Z,8.50
2019-03-12T09:33:55.317Z,7.50
2019-03-12T09:34:55.308Z,7.70
2019-03-12T09:35:55.301Z,7.20
2019-03-12T09:36:55.588Z,7.50
2019-03-12T09:37:55.288Z,7.40
2019-03-12T09:38:55.278Z,7.20
2019-03-12T09:39:55.271Z,8.50
2019-03-12T09:40:55.265Z,7.70
2019-03-12T09:41:55.256Z,6.70
2019-03-12T09:42:55.248Z,9.90
2019-03-12T09:43:55.242Z,8.90
2019-03-12T09:44:55.238Z,7.90
2019-03-12T09:45:55.229Z,8.00
2019-03-12T09:46:55.222Z,11.00
2019-03-12T09:47:55.214Z,7.90
2019-03-12T09:48:55.206Z,9.80
2019-03-12T09:49:55.197Z,10.10
2019-03-12T09:50:55.195Z,8.80
2019-03-12T09:51:55.184Z,11.70
2019-03-12T09:52:55.178Z,8.50
2019-03-12T09:53:55.172Z,9.00
2019-03-12T09:54:55.167Z,9.00
2019-03-12T09:55:55.156Z,8.60
2019-03-12T09:56:55.152Z,9.60
2019-03-12T09:57:55.148Z,9.00
2019-03-12T09:58:55.133Z,10.00
2019-03-12T09:59:55.128Z,9.30
2019-03-12T10:00:55.121Z,7.80
2019-03-12T10:01:55.116Z,10.10
2019-03-12T10:02:55.108Z,7.50
2019-03-12T10:03:55.100Z,11.00
2019-03-12T10:04:55.097Z,8.90
2019-03-12T10:05:55.087Z,9.10
2019-03-12T10:06:55.080Z,8.10
2019-03-12T10:07:55.077Z,8.70
2019-03-12T10:08:55.069Z,9.40
2019-03-12T10:09:55.060Z,8.00
2019-03-12T10:10:55.051Z,10.70
2019-03-12T10:11:55.044Z,8.50
2019-03-12T10:12:55.038Z,8.00
2019-03-12T10:13:55.032Z,8.50
2019-03-12T10:14:55.025Z,9.20
2019-03-12T10:15:55.017Z,8.00
2019-03-12T10:16:55.013Z,6.40
2019-03-12T10:17:55.005Z,8.70
2019-03-12T10:18:54.996Z,6.50
2019-03-12T10:19:54.990Z,7.10
2019-03-12T10:20:54.982Z,6.30
2019-03-12T10:21:54.976Z,7.60
2019-03-12T10:22:54.970Z,7.30
2019-03-12T10:23:54.962Z,8.20
2019-03-12T10:24:54.963Z,7.80
2019-03-12T10:25:54.949Z,8.80
2019-03-12T10:26:54.942Z,6.90
2019-03-12T10:27:54.934Z,7.30
2019-03-12T10:28:54.929Z,6.90
2019-03-12T10:29:54.927Z,6.90
2019-03-12T10:30:54.915Z,5.80
2019-03-12T10:31:54.906Z,6.50
2019-03-12T10:32:54.903Z,8.30
2019-03-12T10:33:54.898Z,6.00
2019-03-12T10:34:54.887Z,6.10
2019-03-12T10:35:54.894Z,5.60
2019-03-12T10:36:54.873Z,6.80
2019-03-12T10:37:54.872Z,7.70
2019-03-12T10:38:54.858Z,7.40
2019-03-12T10:39:54.860Z,6.70
2019-03-12T10:40:54.846Z,6.40
2019-03-12T10:41:54.838Z,9.70
2019-03-12T10:42:54.831Z,5.90
2019-03-12T10:43:55.685Z,7.30
2019-03-12T10:44:54.817Z,6.90
2019-03-12T10:45:54.812Z,5.60
2019-03-12T10:46:54.804Z,6.60
2019-03-12T10:47:54.803Z,6.20
2019-03-12T10:48:54.791Z,8.30
2019-03-12T10:49:54.785Z,6.70
2019-03-12T10:50:54.778Z,4.70
2019-03-12T10:51:54.773Z,6.90
2019-03-12T10:52:54.763Z,7.10
2019-03-12T10:53:54.756Z,5.10
2019-03-12T10:54:54.751Z,6.30
2019-03-12T10:55:54.792Z,7.00
2019-03-12T10:56:54.739Z,6.30
2019-03-12T10:57:54.733Z,5.60
2019-03-12T10:58:54.724Z,7.10
2019-03-12T10:59:54.713Z,7.70
2019-03-12T11:00:54.714Z,7.30
2019-03-12T11:01:54.703Z,8.50
2019-03-12T11:02:54.697Z,6.80
2019-03-12T11:03:54.689Z,6.60
2019-03-12T11:04:54.692Z,5.80
2019-03-12T11:05:55.947Z,6.30
2019-03-12T11:06:54.701Z,7.50
2019-03-12T11:07:54.662Z,6.10
2019-03-12T11:08:54.659Z,5.00
2019-03-12T11:09:54.692Z,5.60
2019-03-12T11:10:54.643Z,6.30
2019-03-12T11:11:54.633Z,6.40
2019-03-12T11:12:54.659Z,6.70
2019-03-12T11:13:54.719Z,5.60
2019-03-12T11:14:54.615Z,4.40
2019-03-12T11:15:54.605Z,6.60
2019-03-12T11:16:54.614Z,6.50
2019-03-12T11:17:54.593Z,6.70
2019-03-12T11:18:54.588Z,6.20
2019-03-12T11:19:54.577Z,3.70
2019-03-12T11:20:54.578Z,6.90
2019-03-12T11:21:54.567Z,3.60
2019-03-12T11:22:54.560Z,4.30
2019-03-12T11:23:54.552Z,5.50
2019-03-12T11:24:54.549Z,5.30
2019-03-12T11:25:54.540Z,4.20
2019-03-12T11:26:54.533Z,5.20
2019-03-12T11:27:54.525Z,3.30
2019-03-12T11:28:54.523Z,3.90
2019-03-12T11:29:54.513Z,5.50
2019-03-12T11:30:54.505Z,5.30
2019-03-12T11:31:54.500Z,3.60
2019-03-12T11:32:54.545Z,5.10
2019-03-12T11:33:54.487Z,5.10
2019-03-12T11:34:54.480Z,3.70
2019-03-12T11:35:54.502Z,6.20
2019-03-12T11:36:54.546Z,5.70
2019-03-12T11:37:54.525Z,3.90
2019-03-12T11:38:54.455Z,5.20
2019-03-12T11:39:54.453Z,3.30
2019-03-12T11:40:54.446Z,8.90
2019-03-12T11:41:54.434Z,5.50
2019-03-12T11:42:54.471Z,4.40
2019-03-12T11:43:54.423Z,5.00
2019-03-12T11:44:54.417Z,4.00
2019-03-12T11:45:54.409Z,3.90
2019-03-12T11:46:54.894Z,3.50
2019-03-12T11:47:54.396Z,5.60
2019-03-12T11:48:54.391Z,6.80
2019-03-12T11:49:54.382Z,5.00
2019-03-12T11:50:54.379Z,4.90
2019-03-12T11:51:54.369Z,3.20
2019-03-12T11:52:58.462Z,2.90
2019-03-12T11:53:54.358Z,4.60
2019-03-12T11:54:54.349Z,3.40
2019-03-12T11:55:54.345Z,4.10
2019-03-12T11:56:54.340Z,3.10
2019-03-12T11:57:54.390Z,5.10
2019-03-12T11:58:54.351Z,2.50
2019-03-12T11:59:54.426Z,3.80
2019-03-12T12:00:54.348Z,7.10
2019-03-12T12:01:54.305Z,4.90
2019-03-12T12:02:59.767Z,5.60
2019-03-12T12:03:54.293Z,3.40
2019-03-12T12:04:54.286Z,2.90
2019-03-12T12:05:54.280Z,4.10
2019-03-12T12:06:54.273Z,5.00
2019-03-12T12:07:54.325Z,3.20
2019-03-12T12:08:54.282Z,2.50
2019-03-12T12:09:54.282Z,4.00
2019-03-12T12:10:54.251Z,2.20
2019-03-12T12:11:54.241Z,2.10
2019-03-12T12:12:54.235Z,2.70
2019-03-12T12:13:54.232Z,3.30
2019-03-12T12:14:54.224Z,2.00
2019-03-12T12:15:54.221Z,2.40
2019-03-12T12:16:54.226Z,1.70
2019-03-12T12:17:54.210Z,3.20
2019-03-12T12:18:54.202Z,2.00
2019-03-12T12:19:54.194Z,2.30
2019-03-12T12:20:54.184Z,3.80
2019-03-12T12:21:54.186Z,2.00
2019-03-12T12:22:54.177Z,2.60
2019-03-12T12:23:54.172Z,3.00
2019-03-12T12:24:54.164Z,2.50
2019-03-12T12:25:54.158Z,5.00
2019-03-12T12:26:54.152Z,3.20
2019-03-12T12:27:54.152Z,2.50
2019-03-12T12:28:54.138Z,3.10
2019-03-12T12:29:54.137Z,4.50
2019-03-12T12:30:54.125Z,4.20
2019-03-12T12:31:54.124Z,2.20
2019-03-12T12:32:54.115Z,4.10
2019-03-12T12:33:54.116Z,2.30
2019-03-12T12:34:54.102Z,2.60
2019-03-12T12:35:54.097Z,3.50
2019-03-12T12:36:54.095Z,3.00
2019-03-12T12:37:54.085Z,3.20
2019-03-12T12:38:54.081Z,2.00
2019-03-12T12:39:54.071Z,2.20
2019-03-12T12:40:54.072Z,3.30
2019-03-12T12:41:54.066Z,2.80
2019-03-12T12:42:54.058Z,2.40
2019-03-12T12:43:54.048Z,2.70
2019-03-12T12:44:54.041Z,2.60
2019-03-12T12:45:54.033Z,3.50
2019-03-12T12:46:54.030Z,3.60
2019-03-12T12:47:54.026Z,2.80
2019-03-12T12:48:54.021Z,3.30
2019-03-12T12:49:54.010Z,4.70
2019-03-12T12:51:02.959Z,2.60
2019-03-12T12:51:53.997Z,2.30
2019-03-12T12:52:53.991Z,2.40
2019-03-12T12:53:53.988Z,2.80
2019-03-12T12:54:53.986Z,3.70
2019-03-12T12:55:53.974Z,3.60
2019-03-12T12:56:53.966Z,2.90
2019-03-12T12:57:53.962Z,2.90
2019-03-12T12:58:53.962Z,3.30